createdAt,value
2022-10-23T00:00:22.101Z,1004.65
2022-10-23T00:01:22.047Z,1004.62
2022-10-23T00:02:22.183Z,1004.6
2022-10-23T00:03:22.079Z,1004.58
2022-10-23T00:04:22.071Z,1004.58
2022-10-23T00:05:22.055Z,1004.54
2022-10-23T00:06:22.031Z,1004.56
2022-10-23T00:07:22.127Z,1004.53
2022-10-23T00:08:22.050Z,1004.49
2022-10-23T00:09:22.050Z,1004.5
2022-10-23T00:10:22.070Z,1004.48
2022-10-23T00:11:22.047Z,1004.48
2022-10-23T00:12:22.082Z,1004.5
2022-10-23T00:13:22.045Z,1004.48
2022-10-23T00:14:22.073Z,1004.5
2022-10-23T00:15:22.092Z,1004.51
2022-10-23T00:16:22.053Z,1004.5
2022-10-23T00:17:22.121Z,1004.56
2022-10-23T00:18:22.196Z,1004.54
2022-10-23T00:19:22.043Z,1004.55
2022-10-23T00:20:22.043Z,1004.57
2022-10-23T00:21:22.044Z,1004.55
2022-10-23T00:22:22.055Z,1004.55
2022-10-23T00:23:22.044Z,1004.55
2022-10-23T00:24:22.046Z,1004.54
2022-10-23T00:25:22.046Z,1004.55
2022-10-23T00:26:22.042Z,1004.52
2022-10-23T00:27:22.088Z,1004.51
2022-10-23T00:28:22.043Z,1004.52
2022-10-23T00:29:22.104Z,1004.51
2022-10-23T00:30:22.202Z,1004.52
2022-10-23T00:31:22.041Z,1004.53
2022-10-23T00:32:22.126Z,1004.54
2022-10-23T00:33:22.038Z,1004.57
2022-10-23T00:34:22.037Z,1004.59
2022-10-23T00:35:22.044Z,1004.57
2022-10-23T00:36:22.055Z,1004.57
2022-10-23T00:37:22.069Z,1004.58
2022-10-23T00:38:22.051Z,1004.57
2022-10-23T00:39:22.048Z,1004.52
2022-10-23T00:40:22.091Z,1004.55
2022-10-23T00:41:22.064Z,1004.51
2022-10-23T00:42:22.096Z,1004.54
2022-10-23T00:43:22.033Z,1004.55
2022-10-23T00:44:22.054Z,1004.53
2022-10-23T00:45:22.035Z,1004.52
2022-10-23T00:46:22.052Z,1004.54
2022-10-23T00:47:22.088Z,1004.58
2022-10-23T00:48:22.037Z,1004.58
2022-10-23T00:49:22.052Z,1004.63
2022-10-23T00:50:22.046Z,1004.62
2022-10-23T00:51:22.117Z,1004.66
2022-10-23T00:52:22.066Z,1004.64
2022-10-23T00:53:22.054Z,1004.67
2022-10-23T00:54:26.044Z,1004.68
2022-10-23T00:55:22.066Z,1004.68
2022-10-23T00:56:22.045Z,1004.66
2022-10-23T00:57:22.127Z,1004.65
2022-10-23T00:58:22.034Z,1004.65
2022-10-23T00:59:22.048Z,1004.63
2022-10-23T01:00:22.037Z,1004.64
2022-10-23T01:01:22.144Z,1004.64
2022-10-23T01:02:22.123Z,1004.61
2022-10-23T01:03:22.157Z,1004.58
2022-10-23T01:04:22.047Z,1004.58
2022-10-23T01:05:22.064Z,1004.65
2022-10-23T01:06:22.059Z,1004.66
2022-10-23T01:07:22.084Z,1004.68
2022-10-23T01:08:22.036Z,1004.68
2022-10-23T01:09:22.058Z,1004.68
2022-10-23T01:10:22.042Z,1004.66
2022-10-23T01:11:22.053Z,1004.63
2022-10-23T01:12:22.058Z,1004.65
2022-10-23T01:13:22.041Z,1004.66
2022-10-23T01:14:22.048Z,1004.64
2022-10-23T01:15:22.062Z,1004.69
2022-10-23T01:16:22.048Z,1004.64
2022-10-23T01:17:22.168Z,1004.71
2022-10-23T01:18:22.040Z,1004.69
2022-10-23T01:19:22.068Z,1004.71
2022-10-23T01:20:22.048Z,1004.68
2022-10-23T01:21:22.043Z,1004.67
2022-10-23T01:22:22.107Z,1004.7
2022-10-23T01:23:22.046Z,1004.68
2022-10-23T01:24:22.042Z,1004.64
2022-10-23T01:25:22.033Z,1004.63
2022-10-23T01:26:22.052Z,1004.64
2022-10-23T01:27:22.079Z,1004.65
2022-10-23T01:28:22.046Z,1004.56
2022-10-23T01:29:22.164Z,1004.6
2022-10-23T01:30:22.053Z,1004.6
2022-10-23T01:31:22.057Z,1004.55
2022-10-23T01:32:22.067Z,1004.54
2022-10-23T01:33:22.054Z,1004.54
2022-10-23T01:34:22.054Z,1004.55
2022-10-23T01:35:22.045Z,1004.53
2022-10-23T01:36:22.047Z,1004.54
2022-10-23T01:37:22.069Z,1004.55
2022-10-23T01:38:22.045Z,1004.56
2022-10-23T01:39:22.071Z,1004.54
2022-10-23T01:40:22.044Z,1004.53
2022-10-23T01:41:22.038Z,1004.54
2022-10-23T01:42:22.060Z,1004.52
2022-10-23T01:43:22.043Z,1004.5
2022-10-23T01:44:22.046Z,1004.52
2022-10-23T01:45:22.043Z,1004.54
2022-10-23T01:46:22.049Z,1004.55
2022-10-23T01:48:22.044Z,1004.52
2022-10-23T01:49:22.052Z,1004.5
2022-10-23T01:50:22.063Z,1004.52
2022-10-23T01:51:22.063Z,1004.47
2022-10-23T01:52:22.065Z,1004.5
2022-10-23T01:53:22.163Z,1004.5
2022-10-23T01:54:22.043Z,1004.54
2022-10-23T01:55:22.045Z,1004.56
2022-10-23T01:56:22.038Z,1004.54
2022-10-23T01:57:22.045Z,1004.52
2022-10-23T01:58:22.052Z,1004.49
2022-10-23T01:59:22.038Z,1004.5
2022-10-23T02:00:22.047Z,1004.48
2022-10-23T02:01:22.137Z,1004.47
2022-10-23T02:02:22.098Z,1004.45
2022-10-23T02:03:22.113Z,1004.47
2022-10-23T02:04:22.051Z,1004.46
2022-10-23T02:05:22.036Z,1004.45
2022-10-23T02:06:22.054Z,1004.39
2022-10-23T02:07:22.039Z,1004.42
2022-10-23T02:08:22.061Z,1004.4
2022-10-23T02:09:22.031Z,1004.43
2022-10-23T02:10:22.330Z,1004.4
2022-10-23T02:11:22.560Z,1004.38
2022-10-23T02:12:22.958Z,1004.34
2022-10-23T02:13:22.430Z,1004.3
2022-10-23T02:14:22.676Z,1004.28
2022-10-23T02:15:22.010Z,1004.29
2022-10-23T02:16:22.506Z,1004.22
2022-10-23T02:17:22.625Z,1004.25
2022-10-23T02:18:21.932Z,1004.22
2022-10-23T02:19:22.182Z,1004.24
2022-10-23T02:20:22.485Z,1004.22
2022-10-23T02:21:22.760Z,1004.18
2022-10-23T02:22:22.697Z,1004.19
2022-10-23T02:23:22.457Z,1004.15
2022-10-23T02:24:22.732Z,1004.13
2022-10-23T02:25:22.190Z,1004.06
2022-10-23T02:26:22.203Z,1004.03
2022-10-23T02:27:22.039Z,1004.04
2022-10-23T02:28:22.088Z,1003.98
2022-10-23T02:29:22.331Z,1004.01
2022-10-23T02:30:22.119Z,1003.98
2022-10-23T02:31:22.073Z,1003.96
2022-10-23T02:32:22.039Z,1003.96
2022-10-23T02:33:22.039Z,1003.96
2022-10-23T02:34:22.042Z,1003.97
2022-10-23T02:35:22.039Z,1003.99
2022-10-23T02:36:22.056Z,1003.96
2022-10-23T02:37:23.066Z,1003.95
2022-10-23T02:38:22.052Z,1003.95
2022-10-23T02:39:22.049Z,1003.95
2022-10-23T02:40:22.056Z,1003.95
2022-10-23T02:41:22.051Z,1003.95
2022-10-23T02:42:22.052Z,1003.95
2022-10-23T02:43:22.029Z,1003.93
2022-10-23T02:44:22.034Z,1003.92
2022-10-23T02:45:22.048Z,1003.93
2022-10-23T02:46:22.048Z,1003.97
2022-10-23T02:47:22.054Z,1003.93
2022-10-23T02:48:22.045Z,1003.94
2022-10-23T02:49:22.058Z,1003.91
2022-10-23T02:50:22.045Z,1003.89
2022-10-23T02:51:22.044Z,1003.86
2022-10-23T02:52:22.044Z,1003.87
2022-10-23T02:53:22.031Z,1003.85
2022-10-23T02:54:22.048Z,1003.85
2022-10-23T02:55:22.046Z,1003.84
2022-10-23T02:56:22.044Z,1003.84
2022-10-23T02:57:22.033Z,1003.84
2022-10-23T02:58:22.046Z,1003.82
2022-10-23T02:59:22.049Z,1003.8
2022-10-23T03:00:22.078Z,1003.8
2022-10-23T03:01:22.119Z,1003.77
2022-10-23T03:02:22.144Z,1003.81
2022-10-23T03:03:22.063Z,1003.75
2022-10-23T03:04:22.039Z,1003.77
2022-10-23T03:05:22.069Z,1003.74
2022-10-23T03:06:22.054Z,1003.74
2022-10-23T03:07:22.035Z,1003.73
2022-10-23T03:08:22.038Z,1003.69
2022-10-23T03:09:22.055Z,1003.75
2022-10-23T03:10:22.063Z,1003.73
2022-10-23T03:11:22.107Z,1003.74
2022-10-23T03:12:22.034Z,1003.75
2022-10-23T03:13:22.052Z,1003.74
2022-10-23T03:14:22.066Z,1003.73
2022-10-23T03:15:22.061Z,1003.69
2022-10-23T03:16:22.106Z,1003.61
2022-10-23T03:17:22.051Z,1003.63
2022-10-23T03:18:22.078Z,1003.65
2022-10-23T03:19:22.039Z,1003.6
2022-10-23T03:20:22.066Z,1003.63
2022-10-23T03:21:22.045Z,1003.6
2022-10-23T03:22:22.047Z,1003.63
2022-10-23T03:23:22.040Z,1003.66
2022-10-23T03:24:22.052Z,1003.7
2022-10-23T03:25:22.156Z,1003.72
2022-10-23T03:26:22.049Z,1003.7
2022-10-23T03:27:22.095Z,1003.7
2022-10-23T03:28:22.044Z,1003.7
2022-10-23T03:29:22.056Z,1003.68
2022-10-23T03:30:22.084Z,1003.7
2022-10-23T03:31:22.129Z,1003.71
2022-10-23T03:32:22.039Z,1003.76
2022-10-23T03:33:22.044Z,1003.71
2022-10-23T03:34:22.043Z,1003.71
2022-10-23T03:35:22.062Z,1003.7
2022-10-23T03:36:22.048Z,1003.7
2022-10-23T03:37:22.071Z,1003.7
2022-10-23T03:38:22.063Z,1003.69
2022-10-23T03:39:22.064Z,1003.65
2022-10-23T03:40:22.046Z,1003.64
2022-10-23T03:41:22.041Z,1003.65
2022-10-23T03:42:22.128Z,1003.63
2022-10-23T03:43:22.039Z,1003.61
2022-10-23T03:44:22.038Z,1003.55
2022-10-23T03:45:22.044Z,1003.57
2022-10-23T03:46:22.048Z,1003.55
2022-10-23T03:47:22.048Z,1003.49
2022-10-23T03:48:22.051Z,1003.47
2022-10-23T03:49:22.042Z,1003.47
2022-10-23T03:50:22.060Z,1003.44
2022-10-23T03:51:22.062Z,1003.37
2022-10-23T03:52:22.042Z,1003.31
2022-10-23T03:53:22.054Z,1003.29
2022-10-23T03:54:22.061Z,1003.27
2022-10-23T03:55:22.041Z,1003.26
2022-10-23T03:56:22.041Z,1003.24
2022-10-23T03:57:22.041Z,1003.24
2022-10-23T03:58:22.047Z,1003.22
2022-10-23T03:59:22.052Z,1003.23
2022-10-23T04:00:22.122Z,1003.23
2022-10-23T04:01:22.147Z,1003.21
2022-10-23T04:02:22.113Z,1003.22
2022-10-23T04:03:22.060Z,1003.2
2022-10-23T04:04:22.036Z,1003.2
2022-10-23T04:05:22.041Z,1003.2
2022-10-23T04:06:22.097Z,1003.16
2022-10-23T04:07:22.150Z,1003.21
2022-10-23T04:08:23.050Z,1003.18
2022-10-23T04:09:22.041Z,1003.16
2022-10-23T04:10:22.048Z,1003.17
2022-10-23T04:11:22.047Z,1003.17
2022-10-23T04:12:22.041Z,1003.19
2022-10-23T04:13:22.045Z,1003.21
2022-10-23T04:14:22.038Z,1003.24
2022-10-23T04:15:22.056Z,1003.19
2022-10-23T04:16:22.047Z,1003.17
2022-10-23T04:17:22.082Z,1003.16
2022-10-23T04:18:22.175Z,1003.15
2022-10-23T04:19:22.034Z,1003.14
2022-10-23T04:20:22.037Z,1003.18
2022-10-23T04:21:22.039Z,1003.12
2022-10-23T04:22:28.464Z,1003.08
2022-10-23T04:23:22.043Z,1003.1
2022-10-23T04:24:22.037Z,1003.13
2022-10-23T04:25:22.053Z,1003.16
2022-10-23T04:26:22.047Z,1003.09
2022-10-23T04:27:22.055Z,1003.11
2022-10-23T04:28:22.050Z,1003.08
2022-10-23T04:29:22.042Z,1003.03
2022-10-23T04:30:22.075Z,1002.97
2022-10-23T04:31:22.049Z,1003
2022-10-23T04:32:22.044Z,1002.95
2022-10-23T04:33:22.042Z,1002.95
2022-10-23T04:34:22.046Z,1002.96
2022-10-23T04:35:22.062Z,1002.95
2022-10-23T04:36:22.033Z,1002.96
2022-10-23T04:37:22.037Z,1002.93
2022-10-23T04:38:22.042Z,1002.95
2022-10-23T04:39:22.024Z,1002.98
2022-10-23T04:40:22.076Z,1002.93
2022-10-23T04:41:22.160Z,1002.93
2022-10-23T04:42:22.121Z,1002.96
2022-10-23T04:43:22.060Z,1002.95
2022-10-23T04:44:22.036Z,1002.89
2022-10-23T04:45:22.072Z,1002.93
2022-10-23T04:46:22.041Z,1002.88
2022-10-23T04:47:22.051Z,1002.8
2022-10-23T04:48:26.874Z,1002.8
2022-10-23T04:49:22.029Z,1002.77
2022-10-23T04:50:22.072Z,1002.74
2022-10-23T04:51:22.053Z,1002.75
2022-10-23T04:52:22.194Z,1002.78
2022-10-23T04:53:22.059Z,1002.77
2022-10-23T04:54:22.040Z,1002.75
2022-10-23T04:55:22.054Z,1002.76
2022-10-23T04:56:22.050Z,1002.78
2022-10-23T04:57:22.071Z,1002.76
2022-10-23T04:58:22.048Z,1002.82
2022-10-23T04:59:22.032Z,1002.84
2022-10-23T05:00:22.048Z,1002.79
2022-10-23T05:01:22.106Z,1002.77
2022-10-23T05:02:22.057Z,1002.77
2022-10-23T05:03:22.046Z,1002.77
2022-10-23T05:04:22.104Z,1002.75
2022-10-23T05:05:22.049Z,1002.74
2022-10-23T05:06:22.051Z,1002.73
2022-10-23T05:07:23.187Z,1002.7
2022-10-23T05:08:22.036Z,1002.73
2022-10-23T05:09:22.041Z,1002.73
2022-10-23T05:10:22.065Z,1002.68
2022-10-23T05:11:22.044Z,1002.67
2022-10-23T05:12:22.050Z,1002.68
2022-10-23T05:13:22.046Z,1002.71
2022-10-23T05:14:25.047Z,1002.74
2022-10-23T05:15:22.038Z,1002.72
2022-10-23T05:16:22.194Z,1002.7
2022-10-23T05:17:22.044Z,1002.68
2022-10-23T05:18:22.086Z,1002.71
2022-10-23T05:19:26.057Z,1002.69
2022-10-23T05:20:22.036Z,1002.71
2022-10-23T05:21:22.036Z,1002.69
2022-10-23T05:22:22.043Z,1002.74
2022-10-23T05:23:22.046Z,1002.73
2022-10-23T05:24:22.047Z,1002.73
2022-10-23T05:25:22.043Z,1002.73
2022-10-23T05:26:22.030Z,1002.66
2022-10-23T05:27:23.295Z,1002.64
2022-10-23T05:28:22.857Z,1002.6
2022-10-23T05:29:22.095Z,1002.58
2022-10-23T05:30:22.071Z,1002.54
2022-10-23T05:31:22.319Z,1002.55
2022-10-23T05:32:22.712Z,1002.54
2022-10-23T05:33:21.982Z,1002.57
2022-10-23T05:34:22.296Z,1002.57
2022-10-23T05:35:22.548Z,1002.57
2022-10-23T05:36:21.969Z,1002.6
2022-10-23T05:37:22.738Z,1002.66
2022-10-23T05:38:22.509Z,1002.64
2022-10-23T05:39:23.431Z,1002.62
2022-10-23T05:40:22.164Z,1002.62
2022-10-23T05:41:22.050Z,1002.63
2022-10-23T05:42:22.266Z,1002.56
2022-10-23T05:43:22.151Z,1002.55
2022-10-23T05:44:22.041Z,1002.55
2022-10-23T05:45:22.061Z,1002.51
2022-10-23T05:46:22.025Z,1002.53
2022-10-23T05:47:22.048Z,1002.48
2022-10-23T05:48:34.492Z,1002.49
2022-10-23T05:49:22.050Z,1002.48
2022-10-23T05:50:22.070Z,1002.49
2022-10-23T05:51:22.164Z,1002.49
2022-10-23T05:52:22.052Z,1002.5
2022-10-23T05:53:22.042Z,1002.53
2022-10-23T05:54:22.047Z,1002.53
2022-10-23T05:55:22.078Z,1002.61
2022-10-23T05:56:22.027Z,1002.61
2022-10-23T05:57:22.060Z,1002.64
2022-10-23T05:58:22.050Z,1002.63
2022-10-23T05:59:25.043Z,1002.6
2022-10-23T06:00:22.074Z,1002.6
2022-10-23T06:01:22.099Z,1002.63
2022-10-23T06:02:22.124Z,1002.55
2022-10-23T06:03:22.059Z,1002.59
2022-10-23T06:04:22.047Z,1002.56
2022-10-23T06:05:22.080Z,1002.53
2022-10-23T06:06:22.051Z,1002.54
2022-10-23T06:07:22.050Z,1002.51
2022-10-23T06:08:22.068Z,1002.57
2022-10-23T06:09:22.030Z,1002.54
2022-10-23T06:10:22.047Z,1002.56
2022-10-23T06:11:22.065Z,1002.51
2022-10-23T06:12:22.041Z,1002.51
2022-10-23T06:13:22.045Z,1002.48
2022-10-23T06:14:22.046Z,1002.57
2022-10-23T06:15:22.046Z,1002.55
2022-10-23T06:16:22.070Z,1002.56
2022-10-23T06:17:22.149Z,1002.58
2022-10-23T06:18:22.048Z,1002.51
2022-10-23T06:19:22.047Z,1002.49
2022-10-23T06:20:26.512Z,1002.47
2022-10-23T06:21:22.032Z,1002.55
2022-10-23T06:22:23.075Z,1002.54
2022-10-23T06:23:22.039Z,1002.5
2022-10-23T06:24:22.033Z,1002.47
2022-10-23T06:25:22.062Z,1002.5
2022-10-23T06:26:22.061Z,1002.46
2022-10-23T06:27:22.130Z,1002.47
2022-10-23T06:28:23.049Z,1002.48
2022-10-23T06:29:22.047Z,1002.51
2022-10-23T06:30:22.051Z,1002.49
2022-10-23T06:31:22.043Z,1002.49
2022-10-23T06:32:22.044Z,1002.52
2022-10-23T06:33:22.047Z,1002.49
2022-10-23T06:34:22.062Z,1002.47
2022-10-23T06:35:22.048Z,1002.45
2022-10-23T06:36:22.048Z,1002.42
2022-10-23T06:37:22.051Z,1002.4
2022-10-23T06:38:22.054Z,1002.4
2022-10-23T06:39:22.057Z,1002.34
2022-10-23T06:40:22.046Z,1002.38
2022-10-23T06:41:22.133Z,1002.41
2022-10-23T06:42:22.056Z,1002.36
2022-10-23T06:43:22.058Z,1002.34
2022-10-23T06:44:22.035Z,1002.29
2022-10-23T06:45:22.057Z,1002.3
2022-10-23T06:46:22.045Z,1002.31
2022-10-23T06:47:22.045Z,1002.26
2022-10-23T06:48:22.043Z,1002.29
2022-10-23T06:49:22.044Z,1002.29
2022-10-23T06:50:22.051Z,1002.26
2022-10-23T06:51:22.058Z,1002.23
2022-10-23T06:52:45.728Z,1002.2
2022-10-23T06:53:22.095Z,1002.17
2022-10-23T06:54:22.042Z,1002.14
2022-10-23T06:55:22.058Z,1002.1
2022-10-23T06:56:22.042Z,1002.11
2022-10-23T06:57:22.030Z,1002.1
2022-10-23T06:58:22.079Z,1002.03
2022-10-23T06:59:22.044Z,1002.09
2022-10-23T07:00:22.054Z,1002.08
2022-10-23T07:01:22.208Z,1002.08
2022-10-23T07:02:22.049Z,1002.05
2022-10-23T07:03:22.052Z,1002.01
2022-10-23T07:04:22.037Z,1002.01
2022-10-23T07:05:22.061Z,1002.02
2022-10-23T07:06:22.143Z,1002.08
2022-10-23T07:07:22.048Z,1002.15
2022-10-23T07:08:22.059Z,1002.14
2022-10-23T07:09:22.047Z,1002.1
2022-10-23T07:10:22.038Z,1002.13
2022-10-23T07:11:22.039Z,1002.15
2022-10-23T07:12:22.053Z,1002.11
2022-10-23T07:13:22.045Z,1002.16
2022-10-23T07:14:22.043Z,1002.14
2022-10-23T07:15:22.145Z,1002.2
2022-10-23T07:16:22.041Z,1002.18
2022-10-23T07:17:22.036Z,1002.2
2022-10-23T07:18:22.070Z,1002.17
2022-10-23T07:19:22.045Z,1002.18
2022-10-23T07:20:22.037Z,1002.13
2022-10-23T07:21:22.045Z,1002.11
2022-10-23T07:22:22.046Z,1002.08
2022-10-23T07:23:22.058Z,1002.07
2022-10-23T07:24:22.048Z,1002.07
2022-10-23T07:25:22.051Z,1002.11
2022-10-23T07:26:22.065Z,1002.04
2022-10-23T07:27:22.053Z,1002.06
2022-10-23T07:28:22.147Z,1002.05
2022-10-23T07:29:22.064Z,1001.99
2022-10-23T07:30:22.058Z,1001.98
2022-10-23T07:31:28.250Z,1001.97
2022-10-23T07:32:22.036Z,1001.97
2022-10-23T07:33:22.028Z,1001.96
2022-10-23T07:34:22.052Z,1002.01
2022-10-23T07:35:22.032Z,1002
2022-10-23T07:36:22.045Z,1001.94
2022-10-23T07:37:22.056Z,1001.95
2022-10-23T07:38:22.070Z,1001.94
2022-10-23T07:39:22.054Z,1001.94
2022-10-23T07:40:22.051Z,1001.91
2022-10-23T07:41:22.116Z,1001.92
2022-10-23T07:42:22.091Z,1001.9
2022-10-23T07:43:22.104Z,1001.91
2022-10-23T07:44:29.057Z,1001.89
2022-10-23T07:45:22.043Z,1001.87
2022-10-23T07:46:22.037Z,1001.87
2022-10-23T07:47:22.066Z,1001.85
2022-10-23T07:48:22.040Z,1001.87
2022-10-23T07:49:22.044Z,1001.88
2022-10-23T07:50:22.051Z,1001.89
2022-10-23T07:51:22.059Z,1001.84
2022-10-23T07:52:22.039Z,1001.85
2022-10-23T07:53:22.127Z,1001.81
2022-10-23T07:54:22.048Z,1001.89
2022-10-23T07:55:22.060Z,1001.87
2022-10-23T07:56:22.039Z,1001.88
2022-10-23T07:57:22.033Z,1001.92
2022-10-23T07:58:22.042Z,1001.89
2022-10-23T07:59:22.056Z,1001.91
2022-10-23T08:00:22.087Z,1001.9
2022-10-23T08:01:22.099Z,1001.9
2022-10-23T08:02:22.140Z,1001.89
2022-10-23T08:03:22.059Z,1001.83
2022-10-23T08:04:22.041Z,1001.81
2022-10-23T08:05:22.060Z,1001.78
2022-10-23T08:06:22.054Z,1001.74
2022-10-23T08:07:22.056Z,1001.75
2022-10-23T08:08:22.049Z,1001.72
2022-10-23T08:09:22.037Z,1001.71
2022-10-23T08:10:22.048Z,1001.74
2022-10-23T08:11:22.047Z,1001.71
2022-10-23T08:12:22.042Z,1001.73
2022-10-23T08:13:22.036Z,1001.72
2022-10-23T08:14:22.051Z,1001.75
2022-10-23T08:15:22.055Z,1001.74
2022-10-23T08:16:22.062Z,1001.8
2022-10-23T08:17:26.276Z,1001.78
2022-10-23T08:18:22.100Z,1001.75
2022-10-23T08:19:22.066Z,1001.79
2022-10-23T08:20:22.053Z,1001.81
2022-10-23T08:21:22.039Z,1001.82
2022-10-23T08:22:22.050Z,1001.8
2022-10-23T08:23:22.032Z,1001.82
2022-10-23T08:24:22.051Z,1001.77
2022-10-23T08:25:28.092Z,1001.78
2022-10-23T08:26:22.054Z,1001.78
2022-10-23T08:27:22.046Z,1001.77
2022-10-23T08:28:22.168Z,1001.79
2022-10-23T08:29:22.058Z,1001.83
2022-10-23T08:30:22.080Z,1001.86
2022-10-23T08:31:22.107Z,1001.85
2022-10-23T08:32:22.075Z,1001.8
2022-10-23T08:33:22.047Z,1001.83
2022-10-23T08:34:22.042Z,1001.86
2022-10-23T08:35:22.159Z,1001.84
2022-10-23T08:36:22.331Z,1001.86
2022-10-23T08:37:22.679Z,1001.81
2022-10-23T08:38:23.027Z,1001.81
2022-10-23T08:39:22.512Z,1001.79
2022-10-23T08:40:21.853Z,1001.79
2022-10-23T08:41:23.173Z,1001.75
2022-10-23T08:42:22.635Z,1001.71
2022-10-23T08:43:23.894Z,1001.69
2022-10-23T08:44:22.056Z,1001.74
2022-10-23T08:45:22.329Z,1001.68
2022-10-23T08:46:22.673Z,1001.69
2022-10-23T08:47:22.514Z,1001.66
2022-10-23T08:48:22.341Z,1001.67
2022-10-23T08:49:22.576Z,1001.58
2022-10-23T08:50:22.967Z,1001.57
2022-10-23T08:51:22.165Z,1001.58
2022-10-23T08:52:22.045Z,1001.54
2022-10-23T08:53:22.245Z,1001.52
2022-10-23T08:54:22.487Z,1001.55
2022-10-23T08:55:22.068Z,1001.55
2022-10-23T08:56:22.048Z,1001.52
2022-10-23T08:57:22.039Z,1001.49
2022-10-23T08:58:22.058Z,1001.43
2022-10-23T08:59:22.044Z,1001.4
2022-10-23T09:00:22.061Z,1001.39
2022-10-23T09:01:22.140Z,1001.34
2022-10-23T09:02:22.169Z,1001.36
2022-10-23T09:03:22.059Z,1001.32
2022-10-23T09:04:22.049Z,1001.27
2022-10-23T09:05:22.078Z,1001.31
2022-10-23T09:06:22.136Z,1001.25
2022-10-23T09:07:22.067Z,1001.28
2022-10-23T09:08:22.064Z,1001.29
2022-10-23T09:09:22.044Z,1001.28
2022-10-23T09:10:22.039Z,1001.23
2022-10-23T09:11:22.060Z,1001.2
2022-10-23T09:12:22.034Z,1001.16
2022-10-23T09:13:22.094Z,1001.15
2022-10-23T09:14:22.044Z,1001.12
2022-10-23T09:15:22.056Z,1001.12
2022-10-23T09:16:22.063Z,1001.12
2022-10-23T09:17:22.051Z,1001.08
2022-10-23T09:18:22.087Z,1001.05
2022-10-23T09:19:22.052Z,1001.07
2022-10-23T09:20:22.047Z,1001.08
2022-10-23T09:21:22.060Z,1001.08
2022-10-23T09:22:22.069Z,1001.06
2022-10-23T09:23:22.041Z,1001.09
2022-10-23T09:24:22.055Z,1001.08
2022-10-23T09:25:22.046Z,1001.12
2022-10-23T09:26:22.068Z,1001.15
2022-10-23T09:27:22.052Z,1001.15
2022-10-23T09:28:22.050Z,1001.12
2022-10-23T09:29:22.061Z,1001.1
2022-10-23T09:30:22.049Z,1001.09
2022-10-23T09:31:22.068Z,1001.07
2022-10-23T09:32:22.145Z,1001.03
2022-10-23T09:33:22.065Z,1000.99
2022-10-23T09:34:22.036Z,1001
2022-10-23T09:35:22.047Z,1000.96
2022-10-23T09:36:22.078Z,1000.94
2022-10-23T09:37:25.287Z,1001
2022-10-23T09:38:22.073Z,1001.02
2022-10-23T09:39:22.049Z,1001.01
2022-10-23T09:40:22.052Z,1001.03
2022-10-23T09:41:22.052Z,1001.03
2022-10-23T09:42:22.090Z,1001.04
2022-10-23T09:43:22.052Z,1001.01
2022-10-23T09:44:22.048Z,1001.02
2022-10-23T09:45:22.057Z,1001
2022-10-23T09:46:22.041Z,1001.05
2022-10-23T09:47:22.041Z,1001.04
2022-10-23T09:48:22.035Z,1001.03
2022-10-23T09:49:22.061Z,1000.97
2022-10-23T09:50:22.057Z,1000.98
2022-10-23T09:51:22.037Z,1001
2022-10-23T09:52:22.051Z,1001.01
2022-10-23T09:53:22.058Z,1001.02
2022-10-23T09:54:22.062Z,1001.02
2022-10-23T09:55:22.049Z,1001
2022-10-23T09:56:28.072Z,1000.97
2022-10-23T09:57:22.128Z,1000.97
2022-10-23T09:58:22.036Z,1000.93
2022-10-23T09:59:22.054Z,1000.96
2022-10-23T10:00:22.042Z,1000.94
2022-10-23T10:01:22.109Z,1000.92
2022-10-23T10:02:22.137Z,1000.86
2022-10-23T10:03:22.052Z,1000.85
2022-10-23T10:04:22.041Z,1000.83
2022-10-23T10:05:22.088Z,1000.83
2022-10-23T10:06:22.047Z,1000.8
2022-10-23T10:07:22.109Z,1000.79
2022-10-23T10:08:22.078Z,1000.75
2022-10-23T10:09:22.063Z,1000.76
2022-10-23T10:10:22.043Z,1000.75
2022-10-23T10:11:22.042Z,1000.78
2022-10-23T10:12:22.043Z,1000.79
2022-10-23T10:13:22.049Z,1000.72
2022-10-23T10:14:22.040Z,1000.73
2022-10-23T10:15:22.048Z,1000.68
2022-10-23T10:16:22.050Z,1000.63
2022-10-23T10:17:22.076Z,1000.64
2022-10-23T10:18:22.132Z,1000.62
2022-10-23T10:19:22.041Z,1000.61
2022-10-23T10:20:22.112Z,1000.56
2022-10-23T10:21:22.057Z,1000.57
2022-10-23T10:22:22.036Z,1000.61
2022-10-23T10:23:22.047Z,1000.56
2022-10-23T10:24:22.062Z,1000.55
2022-10-23T10:25:22.054Z,1000.5
2022-10-23T10:26:22.099Z,1000.48
2022-10-23T10:27:22.047Z,1000.43
2022-10-23T10:28:22.060Z,1000.42
2022-10-23T10:29:22.048Z,1000.34
2022-10-23T10:30:22.165Z,1000.3
2022-10-23T10:31:22.058Z,1000.34
2022-10-23T10:32:22.049Z,1000.29
2022-10-23T10:33:22.045Z,1000.28
2022-10-23T10:34:22.055Z,1000.27
2022-10-23T10:35:22.047Z,1000.25
2022-10-23T10:36:22.058Z,1000.21
2022-10-23T10:37:22.039Z,1000.16
2022-10-23T10:38:22.054Z,1000.09
2022-10-23T10:39:22.064Z,1000.14
2022-10-23T10:40:22.071Z,1000.15
2022-10-23T10:41:22.059Z,1000.18
2022-10-23T10:42:22.037Z,1000.19
2022-10-23T10:43:22.046Z,1000.14
2022-10-23T10:44:22.093Z,1000.14
2022-10-23T10:45:22.045Z,1000.09
2022-10-23T10:46:22.038Z,1000.1
2022-10-23T10:47:25.063Z,1000.08
2022-10-23T10:48:22.044Z,1000.07
2022-10-23T10:49:22.053Z,1000.08
2022-10-23T10:50:22.053Z,1000.09
2022-10-23T10:51:22.047Z,1000.04
2022-10-23T10:52:22.056Z,1000.01
2022-10-23T10:53:22.071Z,1000.02
2022-10-23T10:54:22.055Z,1000
2022-10-23T10:55:22.053Z,999.99
2022-10-23T10:56:22.060Z,999.99
2022-10-23T10:57:22.070Z,999.96
2022-10-23T10:58:22.049Z,999.97
2022-10-23T10:59:22.054Z,999.92
2022-10-23T11:00:22.048Z,999.9
2022-10-23T11:01:22.168Z,999.84
2022-10-23T11:02:22.123Z,999.8
2022-10-23T11:03:22.049Z,999.77
2022-10-23T11:04:22.050Z,999.71
2022-10-23T11:05:22.069Z,999.7
2022-10-23T11:06:22.050Z,999.69
2022-10-23T11:07:22.048Z,999.68
2022-10-23T11:08:22.050Z,999.68
2022-10-23T11:09:23.126Z,999.67
2022-10-23T11:10:22.154Z,999.65
2022-10-23T11:11:22.047Z,999.66
2022-10-23T11:12:22.047Z,999.71
2022-10-23T11:13:22.046Z,999.66
2022-10-23T11:14:22.048Z,999.66
2022-10-23T11:15:22.037Z,999.65
2022-10-23T11:16:22.049Z,999.66
2022-10-23T11:17:22.053Z,999.63
2022-10-23T11:18:22.050Z,999.64
2022-10-23T11:19:22.049Z,999.61
2022-10-23T11:20:22.045Z,999.58
2022-10-23T11:21:22.150Z,999.61
2022-10-23T11:22:22.228Z,999.59
2022-10-23T11:23:22.044Z,999.59
2022-10-23T11:24:22.037Z,999.55
2022-10-23T11:25:22.031Z,999.55
2022-10-23T11:26:22.047Z,999.49
2022-10-23T11:27:22.053Z,999.51
2022-10-23T11:28:22.057Z,999.51
2022-10-23T11:29:22.042Z,999.52
2022-10-23T11:30:22.037Z,999.43
2022-10-23T11:31:22.053Z,999.42
2022-10-23T11:32:22.182Z,999.44
2022-10-23T11:33:22.047Z,999.46
2022-10-23T11:34:22.047Z,999.46
2022-10-23T11:35:22.048Z,999.41
2022-10-23T11:36:22.046Z,999.43
2022-10-23T11:37:22.049Z,999.3
2022-10-23T11:38:22.027Z,999.33
2022-10-23T11:39:22.058Z,999.28
2022-10-23T11:40:22.045Z,999.28
2022-10-23T11:41:28.079Z,999.25
2022-10-23T11:42:22.056Z,999.21
2022-10-23T11:43:22.053Z,999.15
2022-10-23T11:44:22.076Z,999.14
2022-10-23T11:45:22.051Z,999.11
2022-10-23T11:46:22.051Z,999.13
2022-10-23T11:47:22.058Z,999.14
2022-10-23T11:48:22.038Z,999.1
2022-10-23T11:49:22.235Z,999.11
2022-10-23T11:50:22.617Z,999.14
2022-10-23T11:51:22.897Z,999.11
2022-10-23T11:52:22.396Z,999.13
2022-10-23T11:53:23.038Z,999.13
2022-10-23T11:54:22.023Z,999.14
2022-10-23T11:55:22.232Z,999.14
2022-10-23T11:56:22.571Z,999.08
2022-10-23T11:57:23.056Z,999.04
2022-10-23T11:58:22.235Z,999.04
2022-10-23T11:59:22.451Z,998.94
2022-10-23T12:00:22.793Z,998.91
2022-10-23T12:01:22.723Z,998.95
2022-10-23T12:02:22.457Z,998.91
2022-10-23T12:03:22.735Z,998.9
2022-10-23T12:04:22.221Z,998.85
2022-10-23T12:05:22.051Z,998.88
2022-10-23T12:06:22.166Z,998.84
2022-10-23T12:07:22.393Z,998.82
2022-10-23T12:08:22.703Z,998.82
2022-10-23T12:09:22.037Z,998.77
2022-10-23T12:10:22.044Z,998.75
2022-10-23T12:11:27.551Z,998.75
2022-10-23T12:12:22.224Z,998.7